sensor_id;sensor_type;location;lat;lon;timestamp;temperature;humidity
11003;DHT22;5554;55.796;13.090;2022-09-01T00:02:08;10.80;99.90
11003;DHT22;5554;55.796;13.090;2022-09-01T00:04:36;10.90;99.90
11003;DHT22;5554;55.796;13.090;2022-09-01T00:07:04;10.90;99.90
11003;DHT22;5554;55.796;13.090;2022-09-01T00:09:31;10.90;99.90
11003;DHT22;5554;55.796;13.090;2022-09-01T00:11:58;10.90;99.90
11003;DHT22;5554;55.796;13.090;2022-09-01T00:14:31;10.90;99.90
11003;DHT22;5554;55.796;13.090;2022-09-01T00:17:00;10.80;99.90
11003;DHT22;5554;55.796;13.090;2022-09-01T00:19:29;10.80;99.90
11003;DHT22;5554;55.796;13.090;2022-09-01T00:21:58;10.60;99.90
11003;DHT22;5554;55.796;13.090;2022-09-01T00:24:26;10.50;99.90
11003;DHT22;5554;55.796;13.090;2022-09-01T00:26:53;10.50;99.90
11003;DHT22;5554;55.796;13.090;2022-09-01T00:29:20;10.60;99.90
11003;DHT22;5554;55.796;13.090;2022-09-01T00:31:48;10.70;99.90
11003;DHT22;5554;55.796;13.090;2022-09-01T00:34:15;10.70;99.90
11003;DHT22;5554;55.796;13.090;2022-09-01T00:36:43;10.60;99.90
11003;DHT22;5554;55.796;13.090;2022-09-01T00:39:10;10.60;99.90
11003;DHT22;5554;55.796;13.090;2022-09-01T00:41:39;10.50;99.90
11003;DHT22;5554;55.796;13.090;2022-09-01T00:44:10;10.50;99.90
11003;DHT22;5554;55.796;13.090;2022-09-01T00:46:41;10.50;99.90
11003;DHT22;5554;55.796;13.090;2022-09-01T00:49:12;10.50;99.90
11003;DHT22;5554;55.796;13.090;2022-09-01T00:51:43;10.50;99.90
11003;DHT22;5554;55.796;13.090;2022-09-01T00:54:13;10.50;99.90
11003;DHT22;5554;55.796;13.090;2022-09-01T00:56:41;10.40;99.90
11003;DHT22;5554;55.796;13.090;2022-09-01T00:59:09;10.40;99.90
11003;DHT22;5554;55.796;13.090;2022-09-01T01:01:37;10.30;99.90
11003;DHT22;5554;55.796;13.090;2022-09-01T01:04:06;10.30;99.90
11003;DHT22;5554;55.796;13.090;2022-09-01T01:06:40;10.20;99.90
11003;DHT22;5554;55.796;13.090;2022-09-01T01:09:09;10.20;99.90
11003;DHT22;5554;55.796;13.090;2022-09-01T01:11:36;10.20;99.90
11003;DHT22;5554;55.796;13.090;2022-09-01T01:14:05;10.10;99.90
11003;DHT22;5554;55.796;13.090;2022-09-01T01:16:37;10.10;99.90
11003;DHT22;5554;55.796;13.090;2022-09-01T01:19:11;10.10;99.90
11003;DHT22;5554;55.796;13.090;2022-09-01T01:22:04;10.00;99.90
11003;DHT22;5554;55.796;13.090;2022-09-01T01:24:51;9.90;99.90
11003;DHT22;5554;55.796;13.090;2022-09-01T01:27:18;9.90;99.90
11003;DHT22;5554;55.796;13.090;2022-09-01T01:29:46;9.80;99.90
11003;DHT22;5554;55.796;13.090;2022-09-01T01:32:13;9.80;99.90
11003;DHT22;5554;55.796;13.090;2022-09-01T01:34:40;9.80;99.90
11003;DHT22;5554;55.796;13.090;2022-09-01T01:37:10;9.70;99.90
11003;DHT22;5554;55.796;13.090;2022-09-01T01:39:39;9.80;99.90
11003;DHT22;5554;55.796;13.090;2022-09-01T01:42:09;9.70;99.90
11003;DHT22;5554;55.796;13.090;2022-09-01T01:44:37;9.70;99.90
11003;DHT22;5554;55.796;13.090;2022-09-01T01:47:07;9.70;99.90
11003;DHT22;5554;55.796;13.090;2022-09-01T01:49:38;9.70;99.90
11003;DHT22;5554;55.796;13.090;2022-09-01T01:52:09;9.60;99.90
11003;DHT22;5554;55.796;13.090;2022-09-01T01:54:39;9.60;99.90
11003;DHT22;5554;55.796;13.090;2022-09-01T01:57:07;9.70;99.90
11003;DHT22;5554;55.796;13.090;2022-09-01T01:59:35;9.70;99.90
11003;DHT22;5554;55.796;13.090;2022-09-01T02:02:03;9.70;99.90
11003;DHT22;5554;55.796;13.090;2022-09-01T02:04:33;9.60;99.90
11003;DHT22;5554;55.796;13.090;2022-09-01T02:07:00;9.60;99.90
11003;DHT22;5554;55.796;13.090;2022-09-01T02:09:26;9.50;99.90
11003;DHT22;5554;55.796;13.090;2022-09-01T02:11:53;9.50;99.90
11003;DHT22;5554;55.796;13.090;2022-09-01T02:14:22;9.50;99.90
11003;DHT22;5554;55.796;13.090;2022-09-01T02:16:51;9.40;99.90
11003;DHT22;5554;55.796;13.090;2022-09-01T02:19:20;9.30;99.90
11003;DHT22;5554;55.796;13.090;2022-09-01T02:21:47;9.30;99.90
11003;DHT22;5554;55.796;13.090;2022-09-01T02:24:21;9.30;99.90
11003;DHT22;5554;55.796;13.090;2022-09-01T02:26:49;9.40;99.90
11003;DHT22;5554;55.796;13.090;2022-09-01T02:29:18;9.30;99.90
11003;DHT22;5554;55.796;13.090;2022-09-01T02:31:48;9.20;99.90
11003;DHT22;5554;55.796;13.090;2022-09-01T02:34:19;9.20;99.90
11003;DHT22;5554;55.796;13.090;2022-09-01T02:36:53;9.20;99.90
11003;DHT22;5554;55.796;13.090;2022-09-01T02:39:22;9.10;99.90
11003;DHT22;5554;55.796;13.090;2022-09-01T02:41:50;9.10;99.90
11003;DHT22;5554;55.796;13.090;2022-09-01T02:44:18;9.10;99.90
11003;DHT22;5554;55.796;13.090;2022-09-01T02:46:48;9.20;99.90
11003;DHT22;5554;55.796;13.090;2022-09-01T02:49:19;9.30;99.90
11003;DHT22;5554;55.796;13.090;2022-09-01T02:51:49;9.20;99.90
11003;DHT22;5554;55.796;13.090;2022-09-01T02:54:16;9.20;99.90
11003;DHT22;5554;55.796;13.090;2022-09-01T02:56:44;9.20;99.90
11003;DHT22;5554;55.796;13.090;2022-09-01T02:59:13;9.10;99.90
11003;DHT22;5554;55.796;13.090;2022-09-01T03:01:41;9.10;99.90
11003;DHT22;5554;55.796;13.090;2022-09-01T03:04:10;9.00;99.90
11003;DHT22;5554;55.796;13.090;2022-09-01T03:06:39;9.00;99.90
11003;DHT22;5554;55.796;13.090;2022-09-01T03:09:10;9.00;99.90
11003;DHT22;5554;55.796;13.090;2022-09-01T03:11:41;8.90;99.90
11003;DHT22;5554;55.796;13.090;2022-09-01T03:14:08;8.90;99.90
11003;DHT22;5554;55.796;13.090;2022-09-01T03:16:37;8.80;99.90
11003;DHT22;5554;55.796;13.090;2022-09-01T03:19:05;8.80;99.90
11003;DHT22;5554;55.796;13.090;2022-09-01T03:21:34;8.90;99.90
11003;DHT22;5554;55.796;13.090;2022-09-01T03:24:03;8.80;99.90
11003;DHT22;5554;55.796;13.090;2022-09-01T03:26:30;8.70;99.90
11003;DHT22;5554;55.796;13.090;2022-09-01T03:28:57;8.70;99.90
11003;DHT22;5554;55.796;13.090;2022-09-01T03:31:24;8.70;99.90
11003;DHT22;5554;55.796;13.090;2022-09-01T03:33:53;8.60;99.90
11003;DHT22;5554;55.796;13.090;2022-09-01T03:36:22;8.60;99.90
11003;DHT22;5554;55.796;13.090;2022-09-01T03:38:50;8.60;99.90
11003;DHT22;5554;55.796;13.090;2022-09-01T03:41:20;8.60;99.90
11003;DHT22;5554;55.796;13.090;2022-09-01T03:43:48;8.70;99.90
11003;DHT22;5554;55.796;13.090;2022-09-01T03:46:16;8.70;99.90
11003;DHT22;5554;55.796;13.090;2022-09-01T03:48:47;8.60;99.90
11003;DHT22;5554;55.796;13.090;2022-09-01T03:51:16;8.60;99.90
11003;DHT22;5554;55.796;13.090;2022-09-01T03:53:43;8.60;99.90
11003;DHT22;5554;55.796;13.090;2022-09-01T03:56:10;8.60;99.90
11003;DHT22;5554;55.796;13.090;2022-09-01T03:58:40;8.60;99.90
11003;DHT22;5554;55.796;13.090;2022-09-01T04:01:12;8.60;99.90
11003;DHT22;5554;55.796;13.090;2022-09-01T04:03:39;8.60;99.90
11003;DHT22;5554;55.796;13.090;2022-09-01T04:06:08;8.60;99.90
11003;DHT22;5554;55.796;13.090;2022-09-01T04:08:35;8.60;99.90
11003;DHT22;5554;55.796;13.090;2022-09-01T04:11:10;8.60;99.90
11003;DHT22;5554;55.796;13.090;2022-09-01T04:13:40;8.60;99.90
11003;DHT22;5554;55.796;13.090;2022-09-01T04:16:16;8.60;99.90
11003;DHT22;5554;55.796;13.090;2022-09-01T04:19:05;8.50;99.90
11003;DHT22;5554;55.796;13.090;2022-09-01T04:21:41;8.60;99.90
11003;DHT22;5554;55.796;13.090;2022-09-01T04:24:09;8.50;99.90
11003;DHT22;5554;55.796;13.090;2022-09-01T04:26:38;8.50;99.90
11003;DHT22;5554;55.796;13.090;2022-09-01T04:29:07;8.50;99.90
11003;DHT22;5554;55.796;13.090;2022-09-01T04:31:37;8.50;99.90
11003;DHT22;5554;55.796;13.090;2022-09-01T04:34:05;8.50;99.90
11003;DHT22;5554;55.796;13.090;2022-09-01T04:36:40;8.50;99.90
11003;DHT22;5554;55.796;13.090;2022-09-01T04:39:08;8.50;99.90
11003;DHT22;5554;55.796;13.090;2022-09-01T04:41:39;8.60;99.90
11003;DHT22;5554;55.796;13.090;2022-09-01T04:44:08;8.60;99.90
11003;DHT22;5554;55.796;13.090;2022-09-01T04:46:37;8.60;99.90
11003;DHT22;5554;55.796;13.090;2022-09-01T04:49:08;8.70;99.90
11003;DHT22;5554;55.796;13.090;2022-09-01T04:51:37;8.70;99.90
11003;DHT22;5554;55.796;13.090;2022-09-01T04:54:04;8.80;99.90
11003;DHT22;5554;55.796;13.090;2022-09-01T04:56:37;8.80;99.90
11003;DHT22;5554;55.796;13.090;2022-09-01T04:59:04;8.80;99.90
11003;DHT22;5554;55.796;13.090;2022-09-01T05:01:34;8.90;99.90
11003;DHT22;5554;55.796;13.090;2022-09-01T05:04:08;8.90;99.90
11003;DHT22;5554;55.796;13.090;2022-09-01T05:06:39;9.00;99.90
11003;DHT22;5554;55.796;13.090;2022-09-01T05:09:08;9.00;99.90
11003;DHT22;5554;55.796;13.090;2022-09-01T05:11:36;9.10;99.90
11003;DHT22;5554;55.796;13.090;2022-09-01T05:14:04;9.20;99.90
11003;DHT22;5554;55.796;13.090;2022-09-01T05:16:33;9.20;99.90
11003;DHT22;5554;55.796;13.090;2022-09-01T05:19:00;9.30;99.90
11003;DHT22;5554;55.796;13.090;2022-09-01T05:21:28;9.30;99.90
11003;DHT22;5554;55.796;13.090;2022-09-01T05:23:57;9.40;99.90
11003;DHT22;5554;55.796;13.090;2022-09-01T05:26:27;9.40;99.90
11003;DHT22;5554;55.796;13.090;2022-09-01T05:28:56;9.40;99.90
11003;DHT22;5554;55.796;13.090;2022-09-01T05:31:25;9.50;99.90
11003;DHT22;5554;55.796;13.090;2022-09-01T05:33:54;9.50;99.90
11003;DHT22;5554;55.796;13.090;2022-09-01T05:36:23;9.60;99.90
11003;DHT22;5554;55.796;13.090;2022-09-01T05:38:51;9.70;99.90
11003;DHT22;5554;55.796;13.090;2022-09-01T05:41:19;9.70;99.90
11003;DHT22;5554;55.796;13.090;2022-09-01T05:43:48;9.80;99.90
11003;DHT22;5554;55.796;13.090;2022-09-01T05:46:19;10.00;99.90
11003;DHT22;5554;55.796;13.090;2022-09-01T05:48:49;10.00;99.90
11003;DHT22;5554;55.796;13.090;2022-09-01T05:51:20;10.10;99.90
11003;DHT22;5554;55.796;13.090;2022-09-01T05:53:47;10.20;99.90
11003;DHT22;5554;55.796;13.090;2022-09-01T05:56:17;10.40;99.90
11003;DHT22;5554;55.796;13.090;2022-09-01T05:58:45;10.50;99.90
11003;DHT22;5554;55.796;13.090;2022-09-01T06:01:16;10.60;99.90
11003;DHT22;5554;55.796;13.090;2022-09-01T06:03:48;10.60;99.90
11003;DHT22;5554;55.796;13.090;2022-09-01T06:06:21;10.80;99.90
11003;DHT22;5554;55.796;13.090;2022-09-01T06:08:48;10.80;99.90
11003;DHT22;5554;55.796;13.090;2022-09-01T06:11:16;10.90;99.90
11003;DHT22;5554;55.796;13.090;2022-09-01T06:13:43;11.00;99.90
11003;DHT22;5554;55.796;13.090;2022-09-01T06:16:12;11.10;99.90
11003;DHT22;5554;55.796;13.090;2022-09-01T06:18:41;11.20;99.90
11003;DHT22;5554;55.796;13.090;2022-09-01T06:21:09;11.20;99.90
11003;DHT22;5554;55.796;13.090;2022-09-01T06:23:40;11.40;99.90
11003;DHT22;5554;55.796;13.090;2022-09-01T06:26:15;11.60;99.90
11003;DHT22;5554;55.796;13.090;2022-09-01T06:28:43;11.60;99.90
11003;DHT22;5554;55.796;13.090;2022-09-01T06:31:10;11.70;99.90
11003;DHT22;5554;55.796;13.090;2022-09-01T06:33:37;11.80;99.90
11003;DHT22;5554;55.796;13.090;2022-09-01T06:36:05;12.10;99.90
11003;DHT22;5554;55.796;13.090;2022-09-01T06:38:34;12.10;99.90
11003;DHT22;5554;55.796;13.090;2022-09-01T06:41:04;12.20;99.90
11003;DHT22;5554;55.796;13.090;2022-09-01T06:43:37;12.40;99.90
11003;DHT22;5554;55.796;13.090;2022-09-01T06:46:07;12.50;99.90
11003;DHT22;5554;55.796;13.090;2022-09-01T06:48:34;12.60;99.90
11003;DHT22;5554;55.796;13.090;2022-09-01T06:51:02;12.70;99.90
11003;DHT22;5554;55.796;13.090;2022-09-01T06:53:29;12.70;99.90
11003;DHT22;5554;55.796;13.090;2022-09-01T06:55:59;12.80;99.90
11003;DHT22;5554;55.796;13.090;2022-09-01T06:58:28;12.80;99.90
11003;DHT22;5554;55.796;13.090;2022-09-01T07:00:56;12.90;99.90
11003;DHT22;5554;55.796;13.090;2022-09-01T07:03:22;13.10;99.90
11003;DHT22;5554;55.796;13.090;2022-09-01T07:05:51;13.20;99.90
11003;DHT22;5554;55.796;13.090;2022-09-01T07:08:18;13.30;99.90
11003;DHT22;5554;55.796;13.090;2022-09-01T07:10:48;13.30;99.90
11003;DHT22;5554;55.796;13.090;2022-09-01T07:13:18;13.40;99.90
11003;DHT22;5554;55.796;13.090;2022-09-01T07:15:48;13.50;99.90
11003;DHT22;5554;55.796;13.090;2022-09-01T07:18:16;13.60;99.90
11003;DHT22;5554;55.796;13.090;2022-09-01T07:20:43;13.70;99.90
11003;DHT22;5554;55.796;13.090;2022-09-01T07:23:13;13.70;99.90
11003;DHT22;5554;55.796;13.090;2022-09-01T07:25:43;13.80;99.90
11003;DHT22;5554;55.796;13.090;2022-09-01T07:28:12;14.00;99.90
11003;DHT22;5554;55.796;13.090;2022-09-01T07:30:41;14.10;99.90
11003;DHT22;5554;55.796;13.090;2022-09-01T07:33:11;14.20;99.90
11003;DHT22;5554;55.796;13.090;2022-09-01T07:35:39;14.10;99.90
11003;DHT22;5554;55.796;13.090;2022-09-01T07:38:06;14.30;99.90
11003;DHT22;5554;55.796;13.090;2022-09-01T07:40:35;14.50;99.90
11003;DHT22;5554;55.796;13.090;2022-09-01T07:43:04;14.50;99.90
11003;DHT22;5554;55.796;13.090;2022-09-01T07:45:34;14.50;99.90
11003;DHT22;5554;55.796;13.090;2022-09-01T07:48:05;14.60;99.90
11003;DHT22;5554;55.796;13.090;2022-09-01T07:50:35;14.90;99.90
11003;DHT22;5554;55.796;13.090;2022-09-01T07:53:03;14.90;99.90
11003;DHT22;5554;55.796;13.090;2022-09-01T07:55:30;14.90;99.90
11003;DHT22;5554;55.796;13.090;2022-09-01T07:57:57;15.00;99.90
11003;DHT22;5554;55.796;13.090;2022-09-01T08:00:24;15.00;99.90
11003;DHT22;5554;55.796;13.090;2022-09-01T08:02:53;15.20;99.90
11003;DHT22;5554;55.796;13.090;2022-09-01T08:05:20;15.10;1.00
11003;DHT22;5554;55.796;13.090;2022-09-01T08:07:52;15.10;99.90
11003;DHT22;5554;55.796;13.090;2022-09-01T08:10:19;15.10;99.90
11003;DHT22;5554;55.796;13.090;2022-09-01T08:12:47;15.10;99.90
11003;DHT22;5554;55.796;13.090;2022-09-01T08:15:14;15.20;1.00
11003;DHT22;5554;55.796;13.090;2022-09-01T08:17:43;15.40;99.90
11003;DHT22;5554;55.796;13.090;2022-09-01T08:20:13;15.40;1.00
11003;DHT22;5554;55.796;13.090;2022-09-01T08:22:40;15.60;99.90
11003;DHT22;5554;55.796;13.090;2022-09-01T08:25:09;15.70;1.00
11003;DHT22;5554;55.796;13.090;2022-09-01T08:27:37;15.60;99.90
11003;DHT22;5554;55.796;13.090;2022-09-01T08:30:06;15.80;1.00
11003;DHT22;5554;55.796;13.090;2022-09-01T08:32:34;15.90;1.00
11003;DHT22;5554;55.796;13.090;2022-09-01T08:35:01;15.80;99.90
11003;DHT22;5554;55.796;13.090;2022-09-01T08:37:29;15.90;1.00
11003;DHT22;5554;55.796;13.090;2022-09-01T08:39:56;16.00;1.00
11003;DHT22;5554;55.796;13.090;2022-09-01T08:42:34;16.00;99.90
11003;DHT22;5554;55.796;13.090;2022-09-01T08:45:09;16.00;99.90
11003;DHT22;5554;55.796;13.090;2022-09-01T08:47:38;16.20;1.00
11003;DHT22;5554;55.796;13.090;2022-09-01T08:50:06;16.40;1.00
11003;DHT22;5554;55.796;13.090;2022-09-01T08:52:35;16.50;1.00
11003;DHT22;5554;55.796;13.090;2022-09-01T08:55:08;16.60;99.90
11003;DHT22;5554;55.796;13.090;2022-09-01T08:57:39;16.60;99.90
11003;DHT22;5554;55.796;13.090;2022-09-01T09:00:09;16.60;99.90
11003;DHT22;5554;55.796;13.090;2022-09-01T09:02:50;16.70;19.00
11003;DHT22;5554;55.796;13.090;2022-09-01T09:05:30;16.80;1.00
11003;DHT22;5554;55.796;13.090;2022-09-01T09:08:16;17.10;1.00
11003;DHT22;5554;55.796;13.090;2022-09-01T09:10:53;17.10;99.90
11003;DHT22;5554;55.796;13.090;2022-09-01T09:13:32;17.20;99.90
11003;DHT22;5554;55.796;13.090;2022-09-01T09:16:06;17.50;1.00
11003;DHT22;5554;55.796;13.090;2022-09-01T09:18:39;17.40;1.00
11003;DHT22;5554;55.796;13.090;2022-09-01T09:21:12;17.50;99.90
11003;DHT22;5554;55.796;13.090;2022-09-01T09:23:45;17.50;1.00
11003;DHT22;5554;55.796;13.090;2022-09-01T09:26:14;17.50;1.00
11003;DHT22;5554;55.796;13.090;2022-09-01T09:28:46;17.80;99.90
11003;DHT22;5554;55.796;13.090;2022-09-01T09:31:32;18.00;99.90
11003;DHT22;5554;55.796;13.090;2022-09-01T09:34:00;18.20;1.00
11003;DHT22;5554;55.796;13.090;2022-09-01T09:36:33;19.20;1.00
11003;DHT22;5554;55.796;13.090;2022-09-01T09:39:07;19.60;99.90
11003;DHT22;5554;55.796;13.090;2022-09-01T09:41:34;20.70;99.90
11003;DHT22;5554;55.796;13.090;2022-09-01T09:44:12;20.50;1.00
11003;DHT22;5554;55.796;13.090;2022-09-01T09:46:42;21.10;1.00
11003;DHT22;5554;55.796;13.090;2022-09-01T09:49:14;22.20;99.90
11003;DHT22;5554;55.796;13.090;2022-09-01T09:51:45;22.80;99.90
11003;DHT22;5554;55.796;13.090;2022-09-01T09:54:17;22.80;1.00
11003;DHT22;5554;55.796;13.090;2022-09-01T09:56:45;23.20;1.00
11003;DHT22;5554;55.796;13.090;2022-09-01T09:59:23;23.00;1.00
11003;DHT22;5554;55.796;13.090;2022-09-01T10:01:56;24.30;99.90
11003;DHT22;5554;55.796;13.090;2022-09-01T10:04:37;23.90;99.90
11003;DHT22;5554;55.796;13.090;2022-09-01T10:07:27;23.60;99.90
11003;DHT22;5554;55.796;13.090;2022-09-01T10:09:57;23.00;99.90
11003;DHT22;5554;55.796;13.090;2022-09-01T10:12:25;23.40;99.90
11003;DHT22;5554;55.796;13.090;2022-09-01T10:14:57;23.80;99.90
11003;DHT22;5554;55.796;13.090;2022-09-01T10:17:39;23.50;99.90
11003;DHT22;5554;55.796;13.090;2022-09-01T10:20:11;23.20;99.90
11003;DHT22;5554;55.796;13.090;2022-09-01T10:22:39;23.70;99.90
11003;DHT22;5554;55.796;13.090;2022-09-01T10:25:09;24.40;97.70
11003;DHT22;5554;55.796;13.090;2022-09-01T10:27:41;24.60;75.70
11003;DHT22;5554;55.796;13.090;2022-09-01T10:30:15;24.80;55.20
11003;DHT22;5554;55.796;13.090;2022-09-01T10:32:45;23.90;41.80
11003;DHT22;5554;55.796;13.090;2022-09-01T10:35:16;24.20;32.20
11003;DHT22;5554;55.796;13.090;2022-09-01T10:37:45;23.90;28.00
11003;DHT22;5554;55.796;13.090;2022-09-01T10:40:17;23.20;19.20
11003;DHT22;5554;55.796;13.090;2022-09-01T10:42:47;23.40;19.60
11003;DHT22;5554;55.796;13.090;2022-09-01T10:45:33;23.30;29.60
11003;DHT22;5554;55.796;13.090;2022-09-01T10:48:29;23.90;14.40
11003;DHT22;5554;55.796;13.090;2022-09-01T10:54:52;24.70;12.60
11003;DHT22;5554;55.796;13.090;2022-09-01T10:57:38;24.10;5.70
11003;DHT22;5554;55.796;13.090;2022-09-01T11:03:44;24.40;4.10
11003;DHT22;5554;55.796;13.090;2022-09-01T11:09:32;23.90;1.00
11003;DHT22;5554;55.796;13.090;2022-09-01T11:15:37;24.30;1.00
11003;DHT22;5554;55.796;13.090;2022-09-01T11:18:10;24.40;1.00
11003;DHT22;5554;55.796;13.090;2022-09-01T11:20:40;24.60;1.00
11003;DHT22;5554;55.796;13.090;2022-09-01T11:23:11;25.10;1.00
11003;DHT22;5554;55.796;13.090;2022-09-01T11:25:41;25.90;1.00
11003;DHT22;5554;55.796;13.090;2022-09-01T11:28:42;25.10;1.00
11003;DHT22;5554;55.796;13.090;2022-09-01T11:31:31;25.10;1.00
11003;DHT22;5554;55.796;13.090;2022-09-01T11:34:13;24.30;1.00
11003;DHT22;5554;55.796;13.090;2022-09-01T11:36:54;24.70;1.00
11003;DHT22;5554;55.796;13.090;2022-09-01T11:39:32;24.80;1.00
11003;DHT22;5554;55.796;13.090;2022-09-01T11:42:04;26.20;1.00
11003;DHT22;5554;55.796;13.090;2022-09-01T11:44:37;25.50;1.00
11003;DHT22;5554;55.796;13.090;2022-09-01T11:47:09;25.50;1.00
11003;DHT22;5554;55.796;13.090;2022-09-01T11:49:48;24.90;1.00
11003;DHT22;5554;55.796;13.090;2022-09-01T11:52:25;25.00;1.00
11003;DHT22;5554;55.796;13.090;2022-09-01T11:54:53;24.90;1.00
11003;DHT22;5554;55.796;13.090;2022-09-01T11:57:26;25.00;1.00
11003;DHT22;5554;55.796;13.090;2022-09-01T11:59:54;24.90;1.00
11003;DHT22;5554;55.796;13.090;2022-09-01T12:02:23;25.10;1.00
11003;DHT22;5554;55.796;13.090;2022-09-01T12:04:51;25.00;1.00
11003;DHT22;5554;55.796;13.090;2022-09-01T12:07:29;25.30;1.00
11003;DHT22;5554;55.796;13.090;2022-09-01T12:09:57;24.90;1.00
11003;DHT22;5554;55.796;13.090;2022-09-01T12:12:29;24.60;1.00
11003;DHT22;5554;55.796;13.090;2022-09-01T12:14:58;25.50;1.00
11003;DHT22;5554;55.796;13.090;2022-09-01T12:17:25;25.60;1.00
11003;DHT22;5554;55.796;13.090;2022-09-01T12:19:53;24.40;1.00
11003;DHT22;5554;55.796;13.090;2022-09-01T12:22:20;24.60;1.00
11003;DHT22;5554;55.796;13.090;2022-09-01T12:24:51;24.90;1.00
11003;DHT22;5554;55.796;13.090;2022-09-01T12:27:19;24.60;1.00
11003;DHT22;5554;55.796;13.090;2022-09-01T12:29:48;25.10;1.00
11003;DHT22;5554;55.796;13.090;2022-09-01T12:32:16;25.40;1.00
11003;DHT22;5554;55.796;13.090;2022-09-01T12:34:45;25.30;1.00
11003;DHT22;5554;55.796;13.090;2022-09-01T12:37:21;24.10;1.00
11003;DHT22;5554;55.796;13.090;2022-09-01T12:39:51;24.40;1.00
11003;DHT22;5554;55.796;13.090;2022-09-01T12:42:25;25.00;1.00
11003;DHT22;5554;55.796;13.090;2022-09-01T12:44:55;24.20;1.00
11003;DHT22;5554;55.796;13.090;2022-09-01T12:47:48;24.20;1.00
11003;DHT22;5554;55.796;13.090;2022-09-01T12:50:43;24.00;1.00
11003;DHT22;5554;55.796;13.090;2022-09-01T12:53:22;23.70;1.00
11003;DHT22;5554;55.796;13.090;2022-09-01T12:56:01;24.10;1.00
11003;DHT22;5554;55.796;13.090;2022-09-01T12:58:30;23.70;1.00
11003;DHT22;5554;55.796;13.090;2022-09-01T13:01:00;23.80;1.00
11003;DHT22;5554;55.796;13.090;2022-09-01T13:03:29;23.70;1.00
11003;DHT22;5554;55.796;13.090;2022-09-01T13:05:58;23.70;1.00
11003;DHT22;5554;55.796;13.090;2022-09-01T13:08:27;23.40;1.00
11003;DHT22;5554;55.796;13.090;2022-09-01T13:11:06;23.00;1.00
11003;DHT22;5554;55.796;13.090;2022-09-01T13:13:33;23.00;1.00
11003;DHT22;5554;55.796;13.090;2022-09-01T13:16:01;23.10;1.00
11003;DHT22;5554;55.796;13.090;2022-09-01T13:18:37;22.80;1.00
11003;DHT22;5554;55.796;13.090;2022-09-01T13:21:04;22.60;1.00
11003;DHT22;5554;55.796;13.090;2022-09-01T13:23:32;22.60;1.00
11003;DHT22;5554;55.796;13.090;2022-09-01T13:26:00;22.60;1.00
11003;DHT22;5554;55.796;13.090;2022-09-01T13:28:28;22.80;1.00
11003;DHT22;5554;55.796;13.090;2022-09-01T13:30:57;22.60;1.00
11003;DHT22;5554;55.796;13.090;2022-09-01T13:33:25;22.60;1.00
11003;DHT22;5554;55.796;13.090;2022-09-01T13:35:52;22.80;1.00
11003;DHT22;5554;55.796;13.090;2022-09-01T13:38:20;22.40;1.00
11003;DHT22;5554;55.796;13.090;2022-09-01T13:40:48;22.30;1.00
11003;DHT22;5554;55.796;13.090;2022-09-01T13:43:32;22.50;1.00
11003;DHT22;5554;55.796;13.090;2022-09-01T13:46:00;22.40;1.00
11003;DHT22;5554;55.796;13.090;2022-09-01T13:48:27;22.20;1.00
11003;DHT22;5554;55.796;13.090;2022-09-01T13:50:54;22.30;1.00
11003;DHT22;5554;55.796;13.090;2022-09-01T13:53:21;22.00;1.00
11003;DHT22;5554;55.796;13.090;2022-09-01T13:55:48;22.00;1.00
11003;DHT22;5554;55.796;13.090;2022-09-01T13:58:15;22.10;1.00
11003;DHT22;5554;55.796;13.090;2022-09-01T14:00:45;22.10;1.00
11003;DHT22;5554;55.796;13.090;2022-09-01T14:03:15;22.10;1.00
11003;DHT22;5554;55.796;13.090;2022-09-01T14:05:45;22.20;1.00
11003;DHT22;5554;55.796;13.090;2022-09-01T14:08:14;22.10;1.00
11003;DHT22;5554;55.796;13.090;2022-09-01T14:10:44;21.90;1.00
11003;DHT22;5554;55.796;13.090;2022-09-01T14:13:12;21.90;1.00
11003;DHT22;5554;55.796;13.090;2022-09-01T14:15:40;21.60;1.00
11003;DHT22;5554;55.796;13.090;2022-09-01T14:18:08;21.60;1.00
11003;DHT22;5554;55.796;13.090;2022-09-01T14:20:37;21.80;1.00
11003;DHT22;5554;55.796;13.090;2022-09-01T14:23:06;21.80;1.00
11003;DHT22;5554;55.796;13.090;2022-09-01T14:25:34;21.70;1.00
11003;DHT22;5554;55.796;13.090;2022-09-01T14:28:03;21.50;1.00
11003;DHT22;5554;55.796;13.090;2022-09-01T14:30:31;21.40;1.00
11003;DHT22;5554;55.796;13.090;2022-09-01T14:32:58;21.30;1.00
11003;DHT22;5554;55.796;13.090;2022-09-01T14:35:27;20.90;1.80
11003;DHT22;5554;55.796;13.090;2022-09-01T14:37:57;20.70;3.70
11003;DHT22;5554;55.796;13.090;2022-09-01T14:40:25;20.50;6.60
11003;DHT22;5554;55.796;13.090;2022-09-01T14:42:54;20.50;14.20
11003;DHT22;5554;55.796;13.090;2022-09-01T14:45:22;20.60;15.50
11003;DHT22;5554;55.796;13.090;2022-09-01T14:47:51;20.40;24.20
11003;DHT22;5554;55.796;13.090;2022-09-01T14:50:19;20.40;26.80
11003;DHT22;5554;55.796;13.090;2022-09-01T14:52:49;20.20;32.90
11003;DHT22;5554;55.796;13.090;2022-09-01T14:55:17;20.00;32.30
11003;DHT22;5554;55.796;13.090;2022-09-01T14:57:44;20.10;37.60
11003;DHT22;5554;55.796;13.090;2022-09-01T15:00:12;20.10;46.70
11003;DHT22;5554;55.796;13.090;2022-09-01T15:02:40;20.10;48.30
11003;DHT22;5554;55.796;13.090;2022-09-01T15:05:08;20.20;52.60
11003;DHT22;5554;55.796;13.090;2022-09-01T15:07:36;20.10;64.10
11003;DHT22;5554;55.796;13.090;2022-09-01T15:10:07;19.90;65.30
11003;DHT22;5554;55.796;13.090;2022-09-01T15:12:36;19.80;75.50
11003;DHT22;5554;55.796;13.090;2022-09-01T15:15:05;19.80;58.30
11003;DHT22;5554;55.796;13.090;2022-09-01T15:17:33;20.00;56.80
11003;DHT22;5554;55.796;13.090;2022-09-01T15:20:00;20.00;85.00
11003;DHT22;5554;55.796;13.090;2022-09-01T15:22:41;20.20;99.90
11003;DHT22;5554;55.796;13.090;2022-09-01T15:25:10;19.90;97.90
11003;DHT22;5554;55.796;13.090;2022-09-01T15:27:37;19.80;99.90
11003;DHT22;5554;55.796;13.090;2022-09-01T15:30:05;19.90;95.00
11003;DHT22;5554;55.796;13.090;2022-09-01T15:32:41;19.80;89.80
11003;DHT22;5554;55.796;13.090;2022-09-01T15:35:09;19.80;99.90
11003;DHT22;5554;55.796;13.090;2022-09-01T15:37:36;19.80;99.90
11003;DHT22;5554;55.796;13.090;2022-09-01T15:40:05;19.80;99.90
11003;DHT22;5554;55.796;13.090;2022-09-01T15:42:34;19.80;99.90
11003;DHT22;5554;55.796;13.090;2022-09-01T15:45:04;19.80;99.90
11003;DHT22;5554;55.796;13.090;2022-09-01T15:47:31;19.60;99.90
11003;DHT22;5554;55.796;13.090;2022-09-01T15:49:58;19.60;99.90
11003;DHT22;5554;55.796;13.090;2022-09-01T15:52:25;19.60;99.90
11003;DHT22;5554;55.796;13.090;2022-09-01T15:54:54;19.60;99.90
11003;DHT22;5554;55.796;13.090;2022-09-01T15:57:21;19.70;99.90
11003;DHT22;5554;55.796;13.090;2022-09-01T15:59:50;19.80;99.90
11003;DHT22;5554;55.796;13.090;2022-09-01T16:02:16;19.80;99.90
11003;DHT22;5554;55.796;13.090;2022-09-01T16:04:45;19.80;99.90
11003;DHT22;5554;55.796;13.090;2022-09-01T16:07:13;19.80;99.90
11003;DHT22;5554;55.796;13.090;2022-09-01T16:09:40;19.60;99.90
11003;DHT22;5554;55.796;13.090;2022-09-01T16:12:07;19.50;99.90
11003;DHT22;5554;55.796;13.090;2022-09-01T16:14:34;19.40;99.90